Time;durP1;ratioP1;P1;durP2;ratioP2;P2;SDS_P1;SDS_P2;PMS_P1;PMS_P2;Temp;Humidity;BMP_temperature;BMP_pressure;BME280_temperature;BME280_humidity;BME280_pressure;Samples;Min_cycle;Max_cycle;Signal;HPM_P1;HPM_P2
2022/06/28 00:00:48;;;;;;;;;;;;;;;;;;2099148;28;19974;-45
2022/06/28 00:01:49;;;;;;;;;;;;;;;;;;2099108;28;20340;-45
2022/06/28 00:02:50;;;;;;;;;;;;;;;;;;2099168;28;19946;-45
2022/06/28 00:03:51;;;;;;;;;;;;;;;;;;2099077;28;20015;-45
2022/06/28 00:04:51;;;;;;;;;;;;;;;;;;2099231;28;20054;-45
2022/06/28 00:05:55;;;;;;;;;;;;;;;;;;2099251;28;19962;-44
2022/06/28 00:06:55;;;;;;;;;;;;;;;;;;2099019;28;19955;-43
2022/06/28 00:07:56;;;;;;;;;;;;;;;;;;2099143;28;20373;-43
2022/06/28 00:08:57;;;;;;;;;;;;;;;;;;2099192;28;20049;-43
2022/06/28 00:09:58;;;;;;;;;;;;;;;;;;2099193;28;20320;-44
2022/06/28 00:10:59;;;;;;;;;;;;;;;;;;2098116;28;20234;-44
2022/06/28 00:12:00;;;;;;;;;;;;;;;;;;2090732;28;20393;-44
2022/06/28 00:13:01;;;;;;;;;;;;;;;;;;2090736;28;20334;-45
2022/06/28 00:14:02;;;;;;;;;;;;;;;;;;2090799;28;20054;-43
2022/06/28 00:16:22;;;;;;;;;;;;;;;;;;2090805;28;20468;-44
2022/06/28 00:17:22;;;;;;;;;;;;;;;;;;2090726;28;19924;-43
2022/06/28 00:18:24;;;;;;;;;;;;;;;;;;2090627;28;19924;-45
2022/06/28 00:19:24;;;;;;;;;;;;;;;;;;2090246;28;20019;-45
2022/06/28 00:20:25;;;;;;;;;;;;;;;;;;2090134;28;20316;-45
2022/06/28 00:21:26;;;;;;;;;;;;;;;;;;2089745;28;20032;-45
2022/06/28 00:22:27;;;;;;;;;;;;;;;;;;2098981;28;19974;-45
2022/06/28 00:23:28;;;;;;;;;;;;;;;;;;2098980;28;20015;-46
2022/06/28 00:24:29;;;;;;;;;;;;;;;;;;2098949;28;19928;-45
2022/06/28 00:25:29;;;;;;;;;;;;;;;;;;2099134;28;19920;-45
2022/06/28 00:26:30;;;;;;;;;;;;;;;;;;2098876;28;20011;-46
2022/06/28 00:27:31;;;;;;;;;;;;;;;;;;2099069;28;20440;-45
2022/06/28 00:28:32;;;;;;;;;;;;;;;;;;2099084;28;20063;-45
2022/06/28 00:29:33;;;;;;;;;;;;;;;;;;2099105;28;19930;-45
2022/06/28 00:30:34;;;;;;;;;;;;;;;;;;2098892;28;20285;-45
2022/06/28 00:31:35;;;;;;;;;;;;;;;;;;2098752;28;19925;-45
2022/06/28 00:32:36;;;;;;;;;;;;;;;;;;2099014;28;19966;-46
2022/06/28 00:33:37;;;;;;;;;;;;;;;;;;2098968;28;19920;-45
2022/06/28 00:34:38;;;;;;;;;;;;;;;;;;2098865;28;19920;-45
2022/06/28 00:35:39;;;;;;;;;;;;;;;;;;2099015;28;19994;-46
2022/06/28 00:36:39;;;;;;;;;;;;;;;;;;2098896;28;19920;-45
2022/06/28 00:37:40;;;;;;;;;;;;;;;;;;2098933;28;19997;-46
2022/06/28 00:38:41;;;;;;;;;;;;;;;;;;2099017;28;20015;-45
2022/06/28 00:39:42;;;;;;;;;;;;;;;;;;2098851;28;20358;-46
2022/06/28 00:40:43;;;;;;;;;;;;;;;;;;2099148;28;19932;-45
2022/06/28 00:41:44;;;;;;;;;;;;;;;;;;2098626;28;20331;-45
2022/06/28 00:42:44;;;;;;;;;;;;;;;;;;2098931;28;19927;-45
2022/06/28 00:43:45;;;;;;;;;;;;;;;;;;2098942;28;19920;-45
2022/06/28 00:44:46;;;;;;;;;;;;;;;;;;2098800;28;19924;-45
2022/06/28 00:45:47;;;;;;;;;;;;;;;;;;2098881;28;19920;-45
2022/06/28 00:46:48;;;;;;;;;;;;;;;;;;2098200;28;20015;-45
2022/06/28 00:47:49;;;;;;;;;;;;;;;;;;2099151;28;20427;-45
2022/06/28 00:48:50;;;;;;;;;;;;;;;;;;2098727;28;20008;-45
2022/06/28 00:49:51;;;;;;;;;;;;;;;;;;2099042;28;19942;-44
2022/06/28 00:50:52;;;;;;;;;;;;;;;;;;2098720;28;20573;-44
2022/06/28 00:51:56;;;;;;;;;;;;;;;;;;2098865;28;19945;-44
2022/06/28 00:52:56;;;;;;;;;;;;;;;;;;2098895;28;19920;-44
2022/06/28 00:53:57;;;;;;;;;;;;;;;;;;2098945;28;20297;-44
2022/06/28 00:54:58;;;;;;;;;;;;;;;;;;2098815;28;19947;-43
2022/06/28 00:55:59;;;;;;;;;;;;;;;;;;2098890;28;20050;-43
2022/06/28 00:57:00;;;;;;;;;;;;;;;;;;2098916;28;19964;-44
2022/06/28 00:58:01;;;;;;;;;;;;;;;;;;2098867;28;20281;-44
2022/06/28 00:59:01;;;;;;;;;;;;;;;;;;2098988;28;19980;-44
2022/06/28 01:00:02;;;;;;;;;;;;;;;;;;2098761;28;19998;-43
2022/06/28 01:01:04;;;;;;;;;;;;;;;;;;2098649;28;20266;-44
2022/06/28 01:02:05;;;;;;;;;;;;;;;;;;2098689;28;20016;-44
2022/06/28 01:03:06;;;;;;;;;;;;;;;;;;2098981;28;20058;-44
2022/06/28 01:04:07;;;;;;;;;;;;;;;;;;2098634;28;20439;-43
2022/06/28 01:05:08;;;;;;;;;;;;;;;;;;2098841;28;20357;-45
2022/06/28 01:06:09;;;;;;;;;;;;;;;;;;2098947;28;19927;-44
2022/06/28 01:07:10;;;;;;;;;;;;;;;;;;2098557;28;20369;-44
2022/06/28 01:08:11;;;;;;;;;;;;;;;;;;2098866;28;19968;-44
2022/06/28 01:09:12;;;;;;;;;;;;;;;;;;2098635;28;20456;-44
2022/06/28 01:10:13;;;;;;;;;;;;;;;;;;2097926;28;19920;-43
2022/06/28 01:11:20;;;;;;;;;;;;;;;;;;2095281;28;19967;-44
2022/06/28 01:12:21;;;;;;;;;;;;;;;;;;2090513;28;19921;-44
2022/06/28 01:13:22;;;;;;;;;;;;;;;;;;2090631;28;19928;-45
2022/06/28 01:14:23;;;;;;;;;;;;;;;;;;2090532;28;20370;-45
2022/06/28 01:15:23;;;;;;;;;;;;;;;;;;2090313;28;19971;-46
2022/06/28 01:16:24;;;;;;;;;;;;;;;;;;2090338;28;19921;-46
2022/06/28 01:17:25;;;;;;;;;;;;;;;;;;2090736;28;19921;-43
2022/06/28 01:18:26;;;;;;;;;;;;;;;;;;2090341;28;20419;-44
2022/06/28 01:19:27;;;;;;;;;;;;;;;;;;2090284;28;20358;-44
2022/06/28 01:20:46;;;;;;;;;;;;;;;;;;2090656;28;19920;-44
2022/06/28 01:21:47;;;;;;;;;;;;;;;;;;2090378;28;19921;-45
2022/06/28 01:22:48;;;;;;;;;;;;;;;;;;2090269;28;20454;-43
2022/06/28 01:23:48;;;;;;;;;;;;;;;;;;2090685;28;20362;-45
2022/06/28 01:24:50;;;;;;;;;;;;;;;;;;2090317;28;19970;-45
2022/06/28 01:25:50;;;;;;;;;;;;;;;;;;2090298;28;20012;-45
2022/06/28 01:26:51;;;;;;;;;;;;;;;;;;2090343;28;19920;-45
2022/06/28 01:27:52;;;;;;;;;;;;;;;;;;2090323;28;19947;-45
2022/06/28 01:28:53;;;;;;;;;;;;;;;;;;2090508;28;19931;-44
2022/06/28 01:29:54;;;;;;;;;;;;;;;;;;2090610;28;19921;-45
2022/06/28 01:30:55;;;;;;;;;;;;;;;;;;2090255;28;20011;-45
2022/06/28 01:31:55;;;;;;;;;;;;;;;;;;2090180;28;19927;-45
2022/06/28 01:32:56;;;;;;;;;;;;;;;;;;2090378;28;20405;-45
2022/06/28 01:33:57;;;;;;;;;;;;;;;;;;2090220;28;20162;-45
2022/06/28 01:34:58;;;;;;;;;;;;;;;;;;2090168;28;19971;-45
2022/06/28 01:35:59;;;;;;;;;;;;;;;;;;2090153;28;19974;-45
2022/06/28 01:37:00;;;;;;;;;;;;;;;;;;2090406;28;20004;-45
2022/06/28 01:38:01;;;;;;;;;;;;;;;;;;2094193;28;20440;-45
2022/06/28 01:39:02;;;;;;;;;;;;;;;;;;2098510;28;20016;-45
2022/06/28 01:40:02;;;;;;;;;;;;;;;;;;2098623;28;20053;-45
2022/06/28 01:41:03;;;;;;;;;;;;;;;;;;2098421;28;19947;-47
2022/06/28 01:42:05;;;;;;;;;;;;;;;;;;2098638;28;19927;-45
2022/06/28 01:43:06;;;;;;;;;;;;;;;;;;2098424;28;19921;-45
2022/06/28 01:44:07;;;;;;;;;;;;;;;;;;2098600;28;20015;-45
2022/06/28 01:45:08;;;;;;;;;;;;;;;;;;2098644;28;19974;-43
2022/06/28 01:46:09;;;;;;;;;;;;;;;;;;2098517;28;19958;-44
2022/06/28 01:47:10;;;;;;;;;;;;;;;;;;2098491;28;20034;-43
2022/06/28 01:48:10;;;;;;;;;;;;;;;;;;2098687;28;19920;-45
2022/06/28 01:49:11;;;;;;;;;;;;;;;;;;2098528;28;19956;-45
2022/06/28 01:50:12;;;;;;;;;;;;;;;;;;2098559;28;19973;-45
2022/06/28 01:51:31;;;;;;;;;;;;;;;;;;2098372;28;19924;-45
2022/06/28 01:52:32;;;;;;;;;;;;;;;;;;2098680;28;20362;-44
2022/06/28 01:53:33;;;;;;;;;;;;;;;;;;2098348;28;19924;-44
2022/06/28 01:54:34;;;;;;;;;;;;;;;;;;2098618;28;20211;-44
2022/06/28 01:55:35;;;;;;;;;;;;;;;;;;2098552;28;19920;-43
2022/06/28 01:56:36;;;;;;;;;;;;;;;;;;2098224;28;20355;-44
2022/06/28 01:57:36;;;;;;;;;;;;;;;;;;2098401;28;19920;-44
2022/06/28 01:58:37;;;;;;;;;;;;;;;;;;2098392;28;19920;-43
2022/06/28 01:59:38;;;;;;;;;;;;;;;;;;2098547;28;19956;-46
2022/06/28 02:00:39;;;;;;;;;;;;;;;;;;2098402;28;20298;-45
2022/06/28 02:01:40;;;;;;;;;;;;;;;;;;2098480;28;20011;-44
2022/06/28 02:02:41;;;;;;;;;;;;;;;;;;2098444;28;19978;-45
2022/06/28 02:03:42;;;;;;;;;;;;;;;;;;2098402;28;19927;-45
2022/06/28 02:04:43;;;;;;;;;;;;;;;;;;2098430;28;20010;-45
2022/06/28 02:05:44;;;;;;;;;;;;;;;;;;2098229;28;19920;-45
2022/06/28 02:06:45;;;;;;;;;;;;;;;;;;2098428;28;19956;-45
2022/06/28 02:07:46;;;;;;;;;;;;;;;;;;2098215;28;19943;-45
2022/06/28 02:08:46;;;;;;;;;;;;;;;;;;2098214;28;19920;-45
2022/06/28 02:09:47;;;;;;;;;;;;;;;;;;2098300;28;19920;-45
2022/06/28 02:10:48;;;;;;;;;;;;;;;;;;2098289;28;20026;-45
2022/06/28 02:11:49;;;;;;;;;;;;;;;;;;2090368;28;20535;-46
2022/06/28 02:12:50;;;;;;;;;;;;;;;;;;2090006;28;20015;-45
2022/06/28 02:13:51;;;;;;;;;;;;;;;;;;2090113;28;19927;-46
2022/06/28 02:14:51;;;;;;;;;;;;;;;;;;2090000;28;19920;-46
2022/06/28 02:15:53;;;;;;;;;;;;;;;;;;2090004;28;19928;-46
2022/06/28 02:16:53;;;;;;;;;;;;;;;;;;2089926;28;19986;-45
2022/06/28 02:17:54;;;;;;;;;;;;;;;;;;2090142;28;19921;-45
2022/06/28 02:18:55;;;;;;;;;;;;;;;;;;2089987;28;20427;-45
2022/06/28 02:19:56;;;;;;;;;;;;;;;;;;2090383;28;20011;-45
2022/06/28 02:20:57;;;;;;;;;;;;;;;;;;2089900;28;20008;-45
2022/06/28 02:21:58;;;;;;;;;;;;;;;;;;2089762;28;19956;-45
2022/06/28 02:22:59;;;;;;;;;;;;;;;;;;2089910;28;20400;-46
2022/06/28 02:24:00;;;;;;;;;;;;;;;;;;2089997;28;19928;-46
2022/06/28 02:25:01;;;;;;;;;;;;;;;;;;2090334;28;19924;-45
2022/06/28 02:26:02;;;;;;;;;;;;;;;;;;2089863;28;19921;-46
2022/06/28 02:27:03;;;;;;;;;;;;;;;;;;2089854;28;20485;-45
2022/06/28 02:28:04;;;;;;;;;;;;;;;;;;2090097;28;19979;-45
2022/06/28 02:29:04;;;;;;;;;;;;;;;;;;2090023;28;20002;-46
2022/06/28 02:30:05;;;;;;;;;;;;;;;;;;2089823;28;20033;-46
2022/06/28 02:31:06;;;;;;;;;;;;;;;;;;2089789;28;20340;-45
2022/06/28 02:32:07;;;;;;;;;;;;;;;;;;2090119;28;19955;-46
2022/06/28 02:33:08;;;;;;;;;;;;;;;;;;2089780;28;19920;-45
2022/06/28 02:40:21;;;;;;;;;;;;;;;;;;2092908;28;19920;-45
2022/06/28 02:40:47;;;;;;;;;;;;;;;;;;2089892;28;20023;-45
2022/06/28 02:41:48;;;;;;;;;;;;;;;;;;2089773;28;20039;-45
2022/06/28 02:42:49;;;;;;;;;;;;;;;;;;2089855;28;20090;-45
2022/06/28 02:43:50;;;;;;;;;;;;;;;;;;2089784;28;20444;-45
2022/06/28 02:44:51;;;;;;;;;;;;;;;;;;2089789;28;20011;-46
2022/06/28 02:45:51;;;;;;;;;;;;;;;;;;2089926;28;19971;-46
2022/06/28 02:46:53;;;;;;;;;;;;;;;;;;2090008;28;20366;-46
2022/06/28 02:47:53;;;;;;;;;;;;;;;;;;2089994;28;20016;-44
2022/06/28 02:48:54;;;;;;;;;;;;;;;;;;2089831;28;19960;-43
2022/06/28 02:49:55;;;;;;;;;;;;;;;;;;2089825;28;20284;-43
2022/06/28 02:50:56;;;;;;;;;;;;;;;;;;2089621;28;19920;-43
2022/06/28 02:51:57;;;;;;;;;;;;;;;;;;2089953;28;20412;-44
2022/06/28 02:52:58;;;;;;;;;;;;;;;;;;2089879;28;19920;-43
2022/06/28 02:53:59;;;;;;;;;;;;;;;;;;2089828;28;19921;-44
2022/06/28 02:55:00;;;;;;;;;;;;;;;;;;2089745;28;19925;-44
2022/06/28 02:56:00;;;;;;;;;;;;;;;;;;2089785;28;20011;-43
2022/06/28 02:57:01;;;;;;;;;;;;;;;;;;2089613;28;19963;-45
2022/06/28 02:58:02;;;;;;;;;;;;;;;;;;2089877;28;19920;-44
2022/06/28 02:59:03;;;;;;;;;;;;;;;;;;2089691;28;20019;-43
2022/06/28 03:00:07;;;;;;;;;;;;;;;;;;2089758;28;19921;-44
2022/06/28 03:01:08;;;;;;;;;;;;;;;;;;2089675;28;19925;-43
2022/06/28 03:02:09;;;;;;;;;;;;;;;;;;2089740;28;19921;-44
2022/06/28 03:03:10;;;;;;;;;;;;;;;;;;2089930;28;19973;-44
2022/06/28 03:04:11;;;;;;;;;;;;;;;;;;2089687;28;19921;-44
2022/06/28 03:05:13;;;;;;;;;;;;;;;;;;2089904;28;20015;-45
2022/06/28 03:06:14;;;;;;;;;;;;;;;;;;2089632;28;19990;-44
2022/06/28 03:07:14;;;;;;;;;;;;;;;;;;2089734;28;19921;-44
2022/06/28 03:08:15;;;;;;;;;;;;;;;;;;2089616;28;19971;-46
2022/06/28 03:09:16;;;;;;;;;;;;;;;;;;2089562;28;19927;-44
2022/06/28 03:10:18;;;;;;;;;;;;;;;;;;2089624;28;20393;-45
2022/06/28 03:11:18;;;;;;;;;;;;;;;;;;2092776;28;19920;-44
2022/06/28 03:12:19;;;;;;;;;;;;;;;;;;2097919;28;19921;-43
2022/06/28 03:13:20;;;;;;;;;;;;;;;;;;2098055;28;19963;-45
2022/06/28 03:14:21;;;;;;;;;;;;;;;;;;2097960;28;20626;-43
2022/06/28 03:15:22;;;;;;;;;;;;;;;;;;2097889;28;20007;-44
2022/06/28 03:16:26;;;;;;;;;;;;;;;;;;2097991;28;19956;-44
2022/06/28 03:17:27;;;;;;;;;;;;;;;;;;2098126;28;20267;-43
2022/06/28 03:18:28;;;;;;;;;;;;;;;;;;2098185;28;19999;-45
2022/06/28 03:19:29;;;;;;;;;;;;;;;;;;2097747;28;19920;-45
2022/06/28 03:20:30;;;;;;;;;;;;;;;;;;2097837;28;19927;-44
2022/06/28 03:21:31;;;;;;;;;;;;;;;;;;2097824;28;19928;-44
2022/06/28 03:22:32;;;;;;;;;;;;;;;;;;2098002;28;19956;-43
2022/06/28 03:23:32;;;;;;;;;;;;;;;;;;2097744;28;20014;-43
2022/06/28 03:24:33;;;;;;;;;;;;;;;;;;2098009;28;20392;-45
2022/06/28 03:25:34;;;;;;;;;;;;;;;;;;2097854;28;20011;-46
2022/06/28 03:26:35;;;;;;;;;;;;;;;;;;2097934;28;19921;-44
2022/06/28 03:27:36;;;;;;;;;;;;;;;;;;2098168;28;20408;-44
2022/06/28 03:28:37;;;;;;;;;;;;;;;;;;2097836;28;19924;-44
2022/06/28 03:29:37;;;;;;;;;;;;;;;;;;2097922;28;19924;-44
2022/06/28 03:30:38;;;;;;;;;;;;;;;;;;2097285;28;20407;-44
2022/06/28 03:31:39;;;;;;;;;;;;;;;;;;2098056;28;19924;-46
2022/06/28 03:32:40;;;;;;;;;;;;;;;;;;2098033;28;20018;-46
2022/06/28 03:33:41;;;;;;;;;;;;;;;;;;2099342;28;19973;-45
2022/06/28 03:34:42;;;;;;;;;;;;;;;;;;2100605;28;20358;-45
2022/06/28 03:35:43;;;;;;;;;;;;;;;;;;2100735;28;20020;-45
2022/06/28 03:36:44;;;;;;;;;;;;;;;;;;2100516;28;20296;-46
2022/06/28 03:37:46;;;;;;;;;;;;;;;;;;2100734;28;20387;-46
2022/06/28 03:38:47;;;;;;;;;;;;;;;;;;2100534;28;20378;-44
2022/06/28 03:39:48;;;;;;;;;;;;;;;;;;2100487;28;20007;-43
2022/06/28 03:40:49;;;;;;;;;;;;;;;;;;2100601;28;19982;-44
2022/06/28 03:41:49;;;;;;;;;;;;;;;;;;2100494;28;20340;-44
2022/06/28 03:42:51;;;;;;;;;;;;;;;;;;2100433;28;19920;-44
2022/06/28 03:43:51;;;;;;;;;;;;;;;;;;2100968;28;19921;-46
2022/06/28 03:44:52;;;;;;;;;;;;;;;;;;2100529;28;20001;-44
2022/06/28 03:45:53;;;;;;;;;;;;;;;;;;2100425;28;19930;-44
2022/06/28 03:46:54;;;;;;;;;;;;;;;;;;2100464;28;19927;-44
2022/06/28 03:47:56;;;;;;;;;;;;;;;;;;2100646;28;20258;-45
2022/06/28 03:48:57;;;;;;;;;;;;;;;;;;2100493;28;19924;-44
2022/06/28 03:49:58;;;;;;;;;;;;;;;;;;2100497;28;20038;-44
2022/06/28 03:50:59;;;;;;;;;;;;;;;;;;2100552;28;19970;-44
2022/06/28 03:52:00;;;;;;;;;;;;;;;;;;2100459;28;20305;-44
2022/06/28 03:53:01;;;;;;;;;;;;;;;;;;2100621;28;19929;-45
2022/06/28 03:54:02;;;;;;;;;;;;;;;;;;2100796;28;20011;-44
2022/06/28 03:55:06;;;;;;;;;;;;;;;;;;2100387;28;19967;-45
2022/06/28 03:56:06;;;;;;;;;;;;;;;;;;2100358;28;20031;-44
2022/06/28 03:57:07;;;;;;;;;;;;;;;;;;2100604;28;19981;-44
2022/06/28 03:58:08;;;;;;;;;;;;;;;;;;2100519;28;20359;-46
2022/06/28 03:59:09;;;;;;;;;;;;;;;;;;2100642;28;19920;-46
2022/06/28 04:00:10;;;;;;;;;;;;;;;;;;2100425;28;20354;-47
2022/06/28 04:01:11;;;;;;;;;;;;;;;;;;2100428;28;19956;-47
2022/06/28 04:02:12;;;;;;;;;;;;;;;;;;2100410;28;19920;-45
2022/06/28 04:03:13;;;;;;;;;;;;;;;;;;2100545;28;19920;-46
2022/06/28 04:04:14;;;;;;;;;;;;;;;;;;2100601;28;19983;-45
2022/06/28 04:05:15;;;;;;;;;;;;;;;;;;2100566;28;19928;-46
2022/06/28 04:06:17;;;;;;;;;;;;;;;;;;2100288;28;19924;-45
2022/06/28 04:07:18;;;;;;;;;;;;;;;;;;2100588;28;19981;-45
2022/06/28 04:08:18;;;;;;;;;;;;;;;;;;2100448;28;19943;-46
2022/06/28 04:09:20;;;;;;;;;;;;;;;;;;2100399;28;19924;-45
2022/06/28 04:10:20;;;;;;;;;;;;;;;;;;2100301;28;20289;-46
2022/06/28 04:11:21;;;;;;;;;;;;;;;;;;2096413;28;19972;-46
2022/06/28 04:12:22;;;;;;;;;;;;;;;;;;2092261;28;19971;-45
2022/06/28 04:13:23;;;;;;;;;;;;;;;;;;2092003;28;19922;-46
2022/06/28 04:14:24;;;;;;;;;;;;;;;;;;2092119;28;19925;-45
2022/06/28 04:15:25;;;;;;;;;;;;;;;;;;2092112;28;19924;-45
2022/06/28 04:16:25;;;;;;;;;;;;;;;;;;2092116;28;20024;-45
2022/06/28 04:17:26;;;;;;;;;;;;;;;;;;2092363;28;20023;-45
2022/06/28 04:18:27;;;;;;;;;;;;;;;;;;2092193;28;19966;-48
2022/06/28 04:19:28;;;;;;;;;;;;;;;;;;2092166;28;20058;-46
2022/06/28 04:20:29;;;;;;;;;;;;;;;;;;2092053;28;20012;-45
2022/06/28 04:21:30;;;;;;;;;;;;;;;;;;2091962;28;19927;-47
2022/06/28 04:22:31;;;;;;;;;;;;;;;;;;2092112;28;19922;-46
2022/06/28 04:23:32;;;;;;;;;;;;;;;;;;2092164;28;19928;-46
2022/06/28 04:24:33;;;;;;;;;;;;;;;;;;2091966;28;20456;-45
2022/06/28 04:25:34;;;;;;;;;;;;;;;;;;2092027;28;20429;-47
2022/06/28 04:26:35;;;;;;;;;;;;;;;;;;2094397;28;19974;-47
2022/06/28 04:27:36;;;;;;;;;;;;;;;;;;2100312;28;20023;-46
2022/06/28 04:28:37;;;;;;;;;;;;;;;;;;2100408;28;19955;-46
2022/06/28 04:29:37;;;;;;;;;;;;;;;;;;2100278;28;20586;-47
2022/06/28 04:30:38;;;;;;;;;;;;;;;;;;2100313;28;19953;-45
2022/06/28 04:31:39;;;;;;;;;;;;;;;;;;2100118;28;19924;-46
2022/06/28 04:32:40;;;;;;;;;;;;;;;;;;2100424;28;19928;-45
2022/06/28 04:33:41;;;;;;;;;;;;;;;;;;2100216;28;20340;-46
2022/06/28 04:34:42;;;;;;;;;;;;;;;;;;2100229;28;19924;-46
2022/06/28 04:35:43;;;;;;;;;;;;;;;;;;2100374;28;19936;-45
2022/06/28 04:36:44;;;;;;;;;;;;;;;;;;2100398;28;20366;-47
2022/06/28 04:37:45;;;;;;;;;;;;;;;;;;2100202;28;19928;-45
2022/06/28 04:38:46;;;;;;;;;;;;;;;;;;2100283;28;20491;-46
2022/06/28 04:39:47;;;;;;;;;;;;;;;;;;2100534;28;20007;-46
2022/06/28 04:40:48;;;;;;;;;;;;;;;;;;2100557;28;19924;-46
2022/06/28 04:41:49;;;;;;;;;;;;;;;;;;2100266;28;20245;-46
2022/06/28 04:42:49;;;;;;;;;;;;;;;;;;2100200;28;19924;-46
2022/06/28 04:43:50;;;;;;;;;;;;;;;;;;2100341;28;20546;-44
2022/06/28 04:44:51;;;;;;;;;;;;;;;;;;2099735;28;20014;-44
2022/06/28 04:45:52;;;;;;;;;;;;;;;;;;2099113;28;19973;-44
2022/06/28 04:46:53;;;;;;;;;;;;;;;;;;2099046;28;20370;-45
2022/06/28 04:47:54;;;;;;;;;;;;;;;;;;2099337;28;19967;-46
2022/06/28 04:48:55;;;;;;;;;;;;;;;;;;2098894;28;20313;-47
2022/06/28 04:49:56;;;;;;;;;;;;;;;;;;2098987;28;20360;-46
2022/06/28 04:51:10;;;;;;;;;;;;;;;;;;2099189;28;19920;-46
2022/06/28 04:52:11;;;;;;;;;;;;;;;;;;2098820;28;19927;-47
2022/06/28 04:53:12;;;;;;;;;;;;;;;;;;2098966;28;19959;-46
2022/06/28 04:54:13;;;;;;;;;;;;;;;;;;2098788;28;20339;-46
2022/06/28 04:55:14;;;;;;;;;;;;;;;;;;2098968;28;19925;-47
2022/06/28 04:56:14;;;;;;;;;;;;;;;;;;2098749;28;19920;-46
2022/06/28 04:57:15;;;;;;;;;;;;;;;;;;2099078;28;19965;-46
2022/06/28 04:58:16;;;;;;;;;;;;;;;;;;2099030;28;19920;-45
2022/06/28 04:59:17;;;;;;;;;;;;;;;;;;2098696;28;19931;-46
2022/06/28 05:00:18;;;;;;;;;;;;;;;;;;2098715;28;20435;-45
2022/06/28 05:01:19;;;;;;;;;;;;;;;;;;2098821;28;20387;-46
2022/06/28 05:02:20;;;;;;;;;;;;;;;;;;2098674;28;19924;-46
2022/06/28 05:03:21;;;;;;;;;;;;;;;;;;2098923;28;19925;-44
2022/06/28 05:04:22;;;;;;;;;;;;;;;;;;2098742;28;19999;-46
2022/06/28 05:05:23;;;;;;;;;;;;;;;;;;2098658;28;20007;-46
2022/06/28 05:06:24;;;;;;;;;;;;;;;;;;2098689;28;19929;-43
2022/06/28 05:07:27;;;;;;;;;;;;;;;;;;2098677;28;20015;-44
2022/06/28 05:08:28;;;;;;;;;;;;;;;;;;2098738;28;19928;-43
2022/06/28 05:09:29;;;;;;;;;;;;;;;;;;2098703;28;19927;-45
2022/06/28 05:10:37;;;;;;;;;;;;;;;;;;2098762;28;19920;-44
2022/06/28 05:11:38;;;;;;;;;;;;;;;;;;2092135;28;19943;-43
2022/06/28 05:12:39;;;;;;;;;;;;;;;;;;2090516;28;20011;-43
2022/06/28 05:13:40;;;;;;;;;;;;;;;;;;2090482;28;19924;-43
2022/06/28 05:14:41;;;;;;;;;;;;;;;;;;2090268;28;20374;-43
2022/06/28 05:15:41;;;;;;;;;;;;;;;;;;2090673;28;19943;-43
2022/06/28 05:16:42;;;;;;;;;;;;;;;;;;2090679;28;19924;-45
2022/06/28 05:17:43;;;;;;;;;;;;;;;;;;2090713;28;19925;-45
2022/06/28 05:18:44;;;;;;;;;;;;;;;;;;2090509;28;19920;-45
2022/06/28 05:19:45;;;;;;;;;;;;;;;;;;2090328;28;20003;-45
2022/06/28 05:20:46;;;;;;;;;;;;;;;;;;2090316;28;19921;-44
2022/06/28 05:21:47;;;;;;;;;;;;;;;;;;2090397;28;20294;-46
2022/06/28 05:22:48;;;;;;;;;;;;;;;;;;2092654;28;20020;-45
2022/06/28 05:23:49;;;;;;;;;;;;;;;;;;2098650;28;20020;-45
2022/06/28 05:24:50;;;;;;;;;;;;;;;;;;2098766;28;19924;-45
2022/06/28 05:25:50;;;;;;;;;;;;;;;;;;2098923;28;20049;-44
2022/06/28 05:26:51;;;;;;;;;;;;;;;;;;2098820;28;19928;-45
2022/06/28 05:27:52;;;;;;;;;;;;;;;;;;2099153;28;19920;-43
2022/06/28 05:28:53;;;;;;;;;;;;;;;;;;2098925;28;20008;-44
2022/06/28 05:29:54;;;;;;;;;;;;;;;;;;2098529;28;19981;-44
2022/06/28 05:30:55;;;;;;;;;;;;;;;;;;2098369;28;20014;-43
2022/06/28 05:31:56;;;;;;;;;;;;;;;;;;2098599;28;19920;-43
2022/06/28 05:32:57;;;;;;;;;;;;;;;;;;2098612;28;19924;-44
2022/06/28 05:33:58;;;;;;;;;;;;;;;;;;2098611;28;20006;-44
2022/06/28 05:34:59;;;;;;;;;;;;;;;;;;2098691;28;20315;-44
2022/06/28 05:36:00;;;;;;;;;;;;;;;;;;2098918;28;19920;-45
2022/06/28 05:37:01;;;;;;;;;;;;;;;;;;2098942;28;19920;-46
2022/06/28 05:38:02;;;;;;;;;;;;;;;;;;2098573;28;19920;-45
2022/06/28 05:39:03;;;;;;;;;;;;;;;;;;2098611;28;20066;-44
2022/06/28 05:40:04;;;;;;;;;;;;;;;;;;2098836;28;19970;-43
2022/06/28 05:41:05;;;;;;;;;;;;;;;;;;2098538;28;20014;-44
2022/06/28 05:42:06;;;;;;;;;;;;;;;;;;2098555;28;20267;-43
2022/06/28 05:43:07;;;;;;;;;;;;;;;;;;2098512;28;20286;-44
2022/06/28 05:44:08;;;;;;;;;;;;;;;;;;2098547;28;19927;-44
2022/06/28 05:45:09;;;;;;;;;;;;;;;;;;2098748;28;19920;-45
2022/06/28 05:46:10;;;;;;;;;;;;;;;;;;2098519;28;20393;-43
2022/06/28 05:47:11;;;;;;;;;;;;;;;;;;2098424;28;19978;-43
2022/06/28 05:48:12;;;;;;;;;;;;;;;;;;2098337;28;20377;-43
2022/06/28 05:49:13;;;;;;;;;;;;;;;;;;2098578;28;19959;-44
2022/06/28 05:50:14;;;;;;;;;;;;;;;;;;2098423;28;19924;-44
2022/06/28 05:51:15;;;;;;;;;;;;;;;;;;2098413;28;19920;-44
2022/06/28 05:52:16;;;;;;;;;;;;;;;;;;2098649;28;19991;-45
2022/06/28 05:53:17;;;;;;;;;;;;;;;;;;2098570;28;20328;-46
2022/06/28 05:54:17;;;;;;;;;;;;;;;;;;2098644;28;20011;-45
2022/06/28 05:55:18;;;;;;;;;;;;;;;;;;2098535;28;19943;-46
2022/06/28 05:56:19;;;;;;;;;;;;;;;;;;2098105;28;19963;-45
2022/06/28 05:57:20;;;;;;;;;;;;;;;;;;2098206;28;19951;-47
2022/06/28 05:58:21;;;;;;;;;;;;;;;;;;2098749;28;19952;-44
2022/06/28 05:59:22;;;;;;;;;;;;;;;;;;2098386;28;20384;-45
2022/06/28 06:00:23;;;;;;;;;;;;;;;;;;2098494;28;19958;-43
2022/06/28 06:01:25;;;;;;;;;;;;;;;;;;2098273;28;19920;-44
2022/06/28 06:02:26;;;;;;;;;;;;;;;;;;2098493;28;19921;-43
2022/06/28 06:03:27;;;;;;;;;;;;;;;;;;2098492;28;19924;-45
2022/06/28 06:04:28;;;;;;;;;;;;;;;;;;2098776;28;19927;-43
2022/06/28 06:05:29;;;;;;;;;;;;;;;;;;2098464;28;19921;-44
2022/06/28 06:06:30;;;;;;;;;;;;;;;;;;2098313;28;19920;-44
2022/06/28 06:07:31;;;;;;;;;;;;;;;;;;2098389;28;19982;-44
2022/06/28 06:08:32;;;;;;;;;;;;;;;;;;2098521;28;19920;-45
2022/06/28 06:09:33;;;;;;;;;;;;;;;;;;2098671;28;19946;-45
2022/06/28 06:10:34;;;;;;;;;;;;;;;;;;2098494;28;19920;-46
2022/06/28 06:11:35;;;;;;;;;;;;;;;;;;2092367;28;20011;-46
2022/06/28 06:12:35;;;;;;;;;;;;;;;;;;2089887;28;19960;-46
2022/06/28 06:13:37;;;;;;;;;;;;;;;;;;2090144;28;19928;-47
2022/06/28 06:14:37;;;;;;;;;;;;;;;;;;2090455;28;19996;-46
2022/06/28 06:15:38;;;;;;;;;;;;;;;;;;2090242;28;20332;-44
2022/06/28 06:16:39;;;;;;;;;;;;;;;;;;2089937;28;20397;-42
2022/06/28 06:17:40;;;;;;;;;;;;;;;;;;2090158;28;19970;-43
2022/06/28 06:18:41;;;;;;;;;;;;;;;;;;2089992;28;20007;-43
2022/06/28 06:19:42;;;;;;;;;;;;;;;;;;2098058;28;20316;-43
2022/06/28 06:20:43;;;;;;;;;;;;;;;;;;2098676;28;20448;-44
2022/06/28 06:21:45;;;;;;;;;;;;;;;;;;2098121;28;19925;-43
2022/06/28 06:22:47;;;;;;;;;;;;;;;;;;2098203;28;20007;-43
2022/06/28 06:23:48;;;;;;;;;;;;;;;;;;2098289;28;19920;-43
2022/06/28 06:24:49;;;;;;;;;;;;;;;;;;2098218;28;20388;-43
2022/06/28 06:25:50;;;;;;;;;;;;;;;;;;2098249;28;20011;-43
2022/06/28 06:26:50;;;;;;;;;;;;;;;;;;2098324;28;19946;-44
2022/06/28 06:27:51;;;;;;;;;;;;;;;;;;2098383;28;19943;-44
2022/06/28 06:28:52;;;;;;;;;;;;;;;;;;2098209;28;19959;-44
2022/06/28 06:29:53;;;;;;;;;;;;;;;;;;2098609;28;19920;-47
2022/06/28 06:30:54;;;;;;;;;;;;;;;;;;2098166;28;19925;-44
2022/06/28 06:31:55;;;;;;;;;;;;;;;;;;2098288;28;19973;-44
2022/06/28 06:32:56;;;;;;;;;;;;;;;;;;2098461;28;19962;-43
2022/06/28 06:33:57;;;;;;;;;;;;;;;;;;2098137;28;20356;-43
2022/06/28 06:34:58;;;;;;;;;;;;;;;;;;2098540;28;19963;-44
2022/06/28 06:35:59;;;;;;;;;;;;;;;;;;2098231;28;19959;-44
2022/06/28 06:36:59;;;;;;;;;;;;;;;;;;2098466;28;20003;-44
2022/06/28 06:38:00;;;;;;;;;;;;;;;;;;2098362;28;19920;-45
2022/06/28 06:39:01;;;;;;;;;;;;;;;;;;2098290;28;19943;-46
2022/06/28 06:40:02;;;;;;;;;;;;;;;;;;2098044;28;19921;-47
2022/06/28 06:41:03;;;;;;;;;;;;;;;;;;2098172;28;20066;-45
2022/06/28 06:42:04;;;;;;;;;;;;;;;;;;2098639;28;19928;-43
2022/06/28 06:43:05;;;;;;;;;;;;;;;;;;2098473;28;19928;-43
2022/06/28 06:44:06;;;;;;;;;;;;;;;;;;2098462;28;19927;-45
2022/06/28 06:45:07;;;;;;;;;;;;;;;;;;2098661;28;20022;-45
2022/06/28 06:46:07;;;;;;;;;;;;;;;;;;2097939;28;19983;-45
2022/06/28 06:47:09;;;;;;;;;;;;;;;;;;2098187;28;19970;-45
2022/06/28 06:48:09;;;;;;;;;;;;;;;;;;2098085;28;19921;-45
2022/06/28 06:49:14;;;;;;;;;;;;;;;;;;2098367;28;19920;-48
2022/06/28 06:50:15;;;;;;;;;;;;;;;;;;2098489;28;20368;-45
2022/06/28 06:51:16;;;;;;;;;;;;;;;;;;2098113;28;19928;-45
2022/06/28 06:52:17;;;;;;;;;;;;;;;;;;2098132;28;19921;-46
2022/06/28 06:53:19;;;;;;;;;;;;;;;;;;2098235;28;19962;-45
2022/06/28 06:54:20;;;;;;;;;;;;;;;;;;2098550;28;20019;-43
2022/06/28 06:55:20;;;;;;;;;;;;;;;;;;2098120;28;20444;-43
2022/06/28 06:56:21;;;;;;;;;;;;;;;;;;2097928;28;19920;-44
2022/06/28 06:57:22;;;;;;;;;;;;;;;;;;2097996;28;20385;-43
2022/06/28 06:58:24;;;;;;;;;;;;;;;;;;2098737;28;19920;-43
2022/06/28 06:59:24;;;;;;;;;;;;;;;;;;2098152;28;19951;-44
2022/06/28 07:00:25;;;;;;;;;;;;;;;;;;2097945;28;19959;-43
2022/06/28 07:01:29;;;;;;;;;;;;;;;;;;2098414;28;19920;-44
2022/06/28 07:02:46;;;;;;;;;;;;;;;;;;2098276;28;20362;-43
2022/06/28 07:03:47;;;;;;;;;;;;;;;;;;2097916;28;19946;-44
2022/06/28 07:04:48;;;;;;;;;;;;;;;;;;2098543;28;20411;-44